createdAt,value
2019-01-30T00:01:03.413Z,207.50
2019-01-30T00:03:32.649Z,199.67
2019-01-30T00:06:01.782Z,202.43
2019-01-30T00:08:30.922Z,206.07
2019-01-30T00:11:00.095Z,190.43
2019-01-30T00:13:29.420Z,179.93
2019-01-30T00:15:58.561Z,183.67
2019-01-30T00:18:28.355Z,181.77
2019-01-30T00:20:57.551Z,177.47
2019-01-30T00:23:26.689Z,155.37
2019-01-30T00:25:55.926Z,170.93
2019-01-30T00:28:25.065Z,160.63
2019-01-30T00:30:54.226Z,167.90
2019-01-30T00:33:23.393Z,167.37
2019-01-30T00:35:52.544Z,173.17
2019-01-30T00:38:21.681Z,178.90
2019-01-30T00:40:50.846Z,160.57
2019-01-30T00:43:20.010Z,158.17
2019-01-30T00:45:49.166Z,155.20
2019-01-30T00:48:18.346Z,151.90
2019-01-30T00:50:47.558Z,158.57
2019-01-30T00:53:16.682Z,139.40
2019-01-30T00:55:45.853Z,144.70
2019-01-30T00:58:14.977Z,135.17
2019-01-30T01:00:44.161Z,135.80
2019-01-30T01:03:13.318Z,119.10
2019-01-30T01:05:42.538Z,129.73
2019-01-30T01:08:11.686Z,131.33
2019-01-30T01:10:40.842Z,125.63
2019-01-30T01:13:09.974Z,123.60
2019-01-30T01:15:39.190Z,127.47
2019-01-30T01:18:08.345Z,128.47
2019-01-30T01:20:37.581Z,119.60
2019-01-30T01:23:06.998Z,150.27
2019-01-30T01:25:36.238Z,162.90
2019-01-30T01:28:05.592Z,166.30
2019-01-30T01:30:34.850Z,183.40
2019-01-30T01:33:03.989Z,173.47
2019-01-30T01:35:33.109Z,163.17
2019-01-30T01:38:02.290Z,153.93
2019-01-30T01:40:31.421Z,152.77
2019-01-30T01:43:00.550Z,146.33
2019-01-30T01:45:29.698Z,132.10
2019-01-30T01:47:58.849Z,129.50
2019-01-30T01:50:27.979Z,130.97
2019-01-30T01:52:57.134Z,139.07
2019-01-30T01:55:26.359Z,137.57
2019-01-30T01:57:55.559Z,145.00
2019-01-30T02:00:34.999Z,140.50
2019-01-30T02:02:55.912Z,137.03
2019-01-30T02:05:25.082Z,132.47
2019-01-30T02:07:54.279Z,140.23
2019-01-30T02:10:24.253Z,139.50
2019-01-30T02:12:53.630Z,127.47
2019-01-30T02:15:23.763Z,123.53
2019-01-30T02:17:53.646Z,124.70
2019-01-30T02:20:25.371Z,119.13
2019-01-30T02:22:54.705Z,117.87
2019-01-30T02:25:23.859Z,118.13
2019-01-30T02:27:53.042Z,113.73
2019-01-30T02:30:24.617Z,115.53
2019-01-30T02:32:53.922Z,102.27
2019-01-30T02:35:23.759Z,125.93
2019-01-30T02:37:53.049Z,109.93
2019-01-30T02:40:24.262Z,105.43
2019-01-30T02:42:53.477Z,122.10
2019-01-30T02:45:24.633Z,120.67
2019-01-30T02:47:53.789Z,117.83
2019-01-30T02:50:22.950Z,106.13
2019-01-30T02:52:52.081Z,110.03
2019-01-30T02:55:21.416Z,105.90
2019-01-30T02:57:50.674Z,99.23
2019-01-30T03:00:30.464Z,96.43
2019-01-30T03:02:59.714Z,96.83
2019-01-30T03:05:29.217Z,105.53
2019-01-30T03:07:58.478Z,89.67
2019-01-30T03:10:27.621Z,94.87
2019-01-30T03:12:57.402Z,86.73
2019-01-30T03:15:26.621Z,85.13
2019-01-30T03:17:55.762Z,97.43
2019-01-30T03:20:26.051Z,82.37
2019-01-30T03:22:55.646Z,85.77
2019-01-30T03:25:25.483Z,88.77
2019-01-30T03:27:55.034Z,79.20
2019-01-30T03:30:31.471Z,84.37
2019-01-30T03:33:00.721Z,80.50
2019-01-30T03:35:29.937Z,87.50
2019-01-30T03:37:59.122Z,70.80
2019-01-30T03:40:28.485Z,75.30
2019-01-30T03:42:57.641Z,78.57
2019-01-30T03:45:26.800Z,74.93
2019-01-30T03:47:56.014Z,80.67
2019-01-30T03:50:25.142Z,80.93
2019-01-30T03:52:54.278Z,93.50
2019-01-30T03:55:23.444Z,89.37
2019-01-30T03:57:52.641Z,86.70
2019-01-30T04:00:23.613Z,86.47
2019-01-30T04:02:53.573Z,86.30
2019-01-30T04:05:23.257Z,81.37
2019-01-30T04:07:52.555Z,88.27
2019-01-30T04:10:22.678Z,82.20
2019-01-30T04:12:52.225Z,82.60
2019-01-30T04:15:21.597Z,81.93
2019-01-30T04:17:50.749Z,75.00
2019-01-30T04:20:20.299Z,76.10
2019-01-30T04:22:49.669Z,72.20
2019-01-30T04:25:18.911Z,78.60
2019-01-30T04:27:48.045Z,80.40
2019-01-30T04:30:22.249Z,68.37
2019-01-30T04:32:51.437Z,79.40
2019-01-30T04:35:20.677Z,72.03
2019-01-30T04:37:52.672Z,71.13
2019-01-30T04:40:22.231Z,68.17
2019-01-30T04:42:51.645Z,74.73
2019-01-30T04:45:25.301Z,71.83
2019-01-30T04:47:54.429Z,69.17
2019-01-30T04:50:23.593Z,67.20
2019-01-30T04:52:52.771Z,64.97
2019-01-30T04:55:21.910Z,64.77
2019-01-30T04:57:51.347Z,65.53
2019-01-30T05:00:22.675Z,62.37
2019-01-30T05:02:52.013Z,67.07
2019-01-30T05:05:21.303Z,62.23
2019-01-30T05:07:50.537Z,65.17
2019-01-30T05:10:20.073Z,64.47
2019-01-30T05:12:49.215Z,63.33
2019-01-30T05:15:19.300Z,62.73
2019-01-30T05:17:48.522Z,68.27
2019-01-30T05:20:18.825Z,69.13
2019-01-30T05:22:48.065Z,68.00
2019-01-30T05:25:17.636Z,64.67
2019-01-30T05:27:46.787Z,72.03
2019-01-30T05:30:27.408Z,68.80
2019-01-30T05:32:56.562Z,66.27
2019-01-30T05:35:25.810Z,62.53
2019-01-30T05:37:55.172Z,63.73
2019-01-30T05:40:24.353Z,65.37
2019-01-30T05:42:53.629Z,62.33
2019-01-30T05:45:22.993Z,73.27
2019-01-30T05:47:52.198Z,65.80
2019-01-30T05:50:21.366Z,78.43
2019-01-30T05:52:50.655Z,72.10
2019-01-30T05:55:19.985Z,76.40
2019-01-30T05:57:49.183Z,82.63
2019-01-30T06:00:36.516Z,78.43
2019-01-30T06:03:05.671Z,83.03
2019-01-30T06:05:34.810Z,84.87
2019-01-30T06:08:04.004Z,83.33
2019-01-30T06:10:33.237Z,95.13
2019-01-30T06:13:02.358Z,85.97
2019-01-30T06:15:31.576Z,90.50
2019-01-30T06:18:00.710Z,97.43
2019-01-30T06:20:30.061Z,91.87
2019-01-30T06:23:01.723Z,97.63
2019-01-30T06:25:30.408Z,85.40
2019-01-30T06:27:59.549Z,88.83
2019-01-30T06:30:30.070Z,106.03
2019-01-30T06:32:59.210Z,95.47
2019-01-30T06:35:28.533Z,94.33
2019-01-30T06:37:57.737Z,86.90
2019-01-30T06:40:29.621Z,88.47
2019-01-30T06:42:58.778Z,98.93
2019-01-30T06:45:28.013Z,93.83
2019-01-30T06:47:57.207Z,93.07
2019-01-30T06:50:26.346Z,95.03
2019-01-30T06:52:55.482Z,101.63
2019-01-30T06:55:24.643Z,91.30
2019-01-30T06:57:53.778Z,101.50
2019-01-30T07:00:24.773Z,97.33
2019-01-30T07:02:54.618Z,99.77
2019-01-30T07:05:23.782Z,102.27
2019-01-30T07:07:52.912Z,100.17
2019-01-30T07:10:24.149Z,98.73
2019-01-30T07:12:53.313Z,97.70
2019-01-30T07:15:22.757Z,102.67
2019-01-30T07:17:52.000Z,90.73
2019-01-30T07:20:21.363Z,97.87
2019-01-30T07:22:50.526Z,99.10
2019-01-30T07:25:20.648Z,91.90
2019-01-30T07:27:49.878Z,100.07
2019-01-30T07:30:30.760Z,109.70
2019-01-30T07:33:00.016Z,93.13
2019-01-30T07:35:29.406Z,95.87
2019-01-30T07:37:58.927Z,100.40
2019-01-30T07:40:28.302Z,110.77
2019-01-30T07:42:58.561Z,98.63
2019-01-30T07:45:29.353Z,95.00
2019-01-30T07:47:58.545Z,90.90
2019-01-30T07:50:28.035Z,108.37
2019-01-30T07:52:59.028Z,100.97
2019-01-30T07:55:28.270Z,113.63
2019-01-30T07:57:57.446Z,99.03
2019-01-30T08:00:32.143Z,102.87
2019-01-30T08:03:01.330Z,111.27
2019-01-30T08:05:30.470Z,102.37
2019-01-30T08:07:59.617Z,108.13
2019-01-30T08:10:28.779Z,97.10
2019-01-30T08:12:57.949Z,102.80
2019-01-30T08:15:27.253Z,101.57
2019-01-30T08:17:56.384Z,98.87
2019-01-30T08:20:25.885Z,90.57
2019-01-30T08:22:55.157Z,98.47
2019-01-30T08:25:25.046Z,99.17
2019-01-30T08:27:54.473Z,101.53
2019-01-30T08:30:31.429Z,97.50
2019-01-30T08:33:05.824Z,107.07
2019-01-30T08:35:33.882Z,84.97
2019-01-30T08:38:03.212Z,76.87
2019-01-30T08:40:32.377Z,81.23
2019-01-30T08:43:01.562Z,79.13
2019-01-30T08:45:31.990Z,96.00
2019-01-30T08:48:01.458Z,85.63
2019-01-30T08:50:30.863Z,77.43
2019-01-30T08:53:00.162Z,86.23
2019-01-30T08:55:29.500Z,87.33
2019-01-30T08:57:58.766Z,73.93
2019-01-30T09:00:28.870Z,75.10
2019-01-30T09:02:58.385Z,74.73
2019-01-30T09:05:27.589Z,77.57
2019-01-30T09:07:56.970Z,86.73
2019-01-30T09:10:26.566Z,80.10
2019-01-30T09:12:55.870Z,83.93
2019-01-30T09:15:26.342Z,77.30
2019-01-30T09:17:55.741Z,80.47
2019-01-30T09:20:25.408Z,90.93
2019-01-30T09:22:57.344Z,89.67
2019-01-30T09:25:28.326Z,90.67
2019-01-30T09:27:57.857Z,90.83
2019-01-30T09:30:29.279Z,75.97
2019-01-30T09:32:58.805Z,79.17
2019-01-30T09:35:28.164Z,74.40
2019-01-30T09:38:00.022Z,78.10
2019-01-30T09:40:29.323Z,89.23
2019-01-30T09:42:58.547Z,90.10
2019-01-30T09:45:27.673Z,90.20
2019-01-30T09:47:59.215Z,90.43
2019-01-30T09:50:28.417Z,86.73
2019-01-30T09:52:57.566Z,84.70
2019-01-30T09:55:26.836Z,83.47
2019-01-30T09:57:56.032Z,85.27
2019-01-30T10:00:28.210Z,89.20
2019-01-30T10:02:57.408Z,96.90
2019-01-30T10:05:26.646Z,96.17
2019-01-30T10:07:55.918Z,104.43
2019-01-30T10:10:27.638Z,101.57
2019-01-30T10:12:58.250Z,106.00
2019-01-30T10:15:30.153Z,95.17
2019-01-30T10:17:59.424Z,84.63
2019-01-30T10:20:29.042Z,85.97
2019-01-30T10:22:58.359Z,79.47
2019-01-30T10:25:27.661Z,85.33
2019-01-30T10:27:57.917Z,71.50
2019-01-30T10:30:29.386Z,76.50
2019-01-30T10:32:58.626Z,75.17
2019-01-30T10:35:27.955Z,81.23
2019-01-30T10:37:57.096Z,79.57
2019-01-30T10:40:26.338Z,75.33
2019-01-30T10:42:57.371Z,77.63
2019-01-30T10:45:27.102Z,71.03
2019-01-30T10:47:59.468Z,70.13
2019-01-30T10:50:30.015Z,70.30
2019-01-30T10:52:59.346Z,64.00
2019-01-30T10:55:30.301Z,49.27
2019-01-30T10:58:01.283Z,58.47
2019-01-30T11:00:42.373Z,53.17
2019-01-30T11:03:11.749Z,54.87
2019-01-30T11:05:41.008Z,58.57
2019-01-30T11:08:12.628Z,57.73
2019-01-30T11:10:41.845Z,61.20
2019-01-30T11:13:10.972Z,56.20
2019-01-30T11:15:40.130Z,55.60
2019-01-30T11:18:12.462Z,54.90
2019-01-30T11:20:41.838Z,64.60
2019-01-30T11:23:10.977Z,65.37
2019-01-30T11:25:42.327Z,63.90
2019-01-30T11:28:13.019Z,63.57
2019-01-30T11:30:42.360Z,70.37
2019-01-30T11:33:11.586Z,73.83
2019-01-30T11:35:41.081Z,84.03
2019-01-30T11:38:10.298Z,73.17
2019-01-30T11:40:39.513Z,68.07
2019-01-30T11:43:08.674Z,77.60
2019-01-30T11:45:40.320Z,66.23
2019-01-30T11:48:09.932Z,62.03
2019-01-30T11:50:40.729Z,66.47
2019-01-30T11:53:10.040Z,64.97
2019-01-30T11:55:39.256Z,68.20
2019-01-30T11:58:08.815Z,65.87
2019-01-30T12:00:47.932Z,58.30
2019-01-30T12:03:17.174Z,54.90
2019-01-30T12:05:47.301Z,54.83
2019-01-30T12:08:16.655Z,62.23
2019-01-30T12:10:45.869Z,60.33
2019-01-30T12:13:15.083Z,56.23
2019-01-30T12:15:44.470Z,56.23
2019-01-30T12:18:13.798Z,55.87
2019-01-30T12:20:43.115Z,64.40
2019-01-30T12:23:12.413Z,61.87
2019-01-30T12:25:41.578Z,65.00
2019-01-30T12:28:10.806Z,58.13
2019-01-30T12:30:40.219Z,66.23
2019-01-30T12:33:09.471Z,65.77
2019-01-30T12:35:38.798Z,66.43
2019-01-30T12:38:08.107Z,56.13
2019-01-30T12:40:37.393Z,67.37
2019-01-30T12:43:07.938Z,64.57
2019-01-30T12:45:37.446Z,48.33
2019-01-30T12:48:07.572Z,45.50
2019-01-30T12:50:36.836Z,51.13
2019-01-30T12:53:06.182Z,51.90
2019-01-30T12:55:35.501Z,59.27
2019-01-30T12:58:04.856Z,79.67
2019-01-30T13:00:36.338Z,66.93
2019-01-30T13:03:05.773Z,61.97
2019-01-30T13:05:35.358Z,66.53
2019-01-30T13:08:04.918Z,64.07
2019-01-30T13:10:34.066Z,69.13
2019-01-30T13:13:03.197Z,56.77
2019-01-30T13:15:32.499Z,59.27
2019-01-30T13:18:01.624Z,62.30
2019-01-30T13:20:30.767Z,62.73
2019-01-30T13:22:59.957Z,53.17
2019-01-30T13:25:31.597Z,56.87
2019-01-30T13:28:00.850Z,51.90
2019-01-30T13:30:32.186Z,40.17
2019-01-30T13:33:01.620Z,41.73
2019-01-30T13:35:30.989Z,41.20
2019-01-30T13:38:00.137Z,42.27
2019-01-30T13:40:34.186Z,36.80
2019-01-30T13:43:03.358Z,43.13
2019-01-30T13:45:32.679Z,53.73
2019-01-30T13:48:02.010Z,57.80
2019-01-30T13:50:31.269Z,58.73
2019-01-30T13:53:01.346Z,57.73
2019-01-30T13:55:30.954Z,72.43
2019-01-30T13:58:00.178Z,67.97
2019-01-30T14:00:31.715Z,75.33
2019-01-30T14:03:01.390Z,78.23
2019-01-30T14:05:31.498Z,96.20
2019-01-30T14:08:00.750Z,84.37
2019-01-30T14:10:30.358Z,87.63
2019-01-30T14:12:59.603Z,79.13
2019-01-30T14:15:29.642Z,76.43
2019-01-30T14:17:59.173Z,82.93
2019-01-30T14:20:28.597Z,76.77
2019-01-30T14:22:57.832Z,101.33
2019-01-30T14:25:27.089Z,103.57
2019-01-30T14:27:56.314Z,116.30
2019-01-30T14:30:27.815Z,112.93
2019-01-30T14:32:56.980Z,122.20
2019-01-30T14:35:27.770Z,138.23
2019-01-30T14:37:57.097Z,128.83
2019-01-30T14:40:26.381Z,109.77
2019-01-30T14:42:55.565Z,104.30
2019-01-30T14:45:25.050Z,105.60
2019-01-30T14:47:54.606Z,105.90
2019-01-30T14:50:25.105Z,104.93
2019-01-30T14:52:54.448Z,121.17
2019-01-30T14:55:23.897Z,119.77
2019-01-30T14:57:53.988Z,115.77
2019-01-30T15:00:26.119Z,116.43
2019-01-30T15:02:55.354Z,113.10
2019-01-30T15:05:24.826Z,109.33
2019-01-30T15:07:54.098Z,126.87
2019-01-30T15:10:23.440Z,117.37
2019-01-30T15:12:52.667Z,112.77
2019-01-30T15:15:26.349Z,117.17
2019-01-30T15:17:55.595Z,123.80
2019-01-30T15:20:29.550Z,111.63
2019-01-30T15:23:00.001Z,96.83
2019-01-30T15:25:29.811Z,98.70
2019-01-30T15:27:59.914Z,102.80
2019-01-30T15:30:31.864Z,104.67
2019-01-30T15:33:01.112Z,101.80
2019-01-30T15:35:33.743Z,107.23
2019-01-30T15:38:02.793Z,110.13
2019-01-30T15:40:32.066Z,124.03
2019-01-30T15:43:01.222Z,125.07
2019-01-30T15:45:30.862Z,122.60
2019-01-30T15:48:00.329Z,129.20
2019-01-30T15:50:31.076Z,148.10
2019-01-30T15:53:01.454Z,141.07
2019-01-30T15:55:30.865Z,143.80
2019-01-30T15:58:02.863Z,131.87
2019-01-30T16:00:35.142Z,135.03
2019-01-30T16:03:04.545Z,132.17
2019-01-30T16:05:44.153Z,127.53
2019-01-30T16:08:04.686Z,115.63
2019-01-30T16:10:33.913Z,114.63
2019-01-30T16:13:03.261Z,113.03
2019-01-30T16:15:47.776Z,106.90
2019-01-30T16:18:17.154Z,106.20
2019-01-30T16:20:46.352Z,103.73
2019-01-30T16:23:15.678Z,103.63
2019-01-30T16:25:45.053Z,100.07
2019-01-30T16:28:14.414Z,101.07
2019-01-30T16:30:43.649Z,102.83
2019-01-30T16:33:12.960Z,108.77
2019-01-30T16:35:42.122Z,109.57
2019-01-30T16:38:11.540Z,108.97
2019-01-30T16:40:40.842Z,118.37
2019-01-30T16:43:10.033Z,117.47
2019-01-30T16:45:39.186Z,115.17
2019-01-30T16:48:08.866Z,119.80
2019-01-30T16:50:38.263Z,104.07
2019-01-30T16:53:08.903Z,109.23
2019-01-30T16:55:38.349Z,126.10
2019-01-30T16:58:09.765Z,125.20
2019-01-30T17:00:39.280Z,140.80
2019-01-30T17:03:08.608Z,164.90
2019-01-30T17:05:38.015Z,163.73
2019-01-30T17:08:08.006Z,172.10
2019-01-30T17:10:37.313Z,191.63
2019-01-30T17:13:07.133Z,177.97
2019-01-30T17:15:36.621Z,187.47
2019-01-30T17:18:07.362Z,172.07
2019-01-30T17:20:37.782Z,189.43
2019-01-30T17:23:06.987Z,184.50
2019-01-30T17:25:36.495Z,183.33
2019-01-30T17:28:06.110Z,172.47
2019-01-30T17:30:38.532Z,171.80
2019-01-30T17:33:07.753Z,198.40
2019-01-30T17:35:37.590Z,222.00
2019-01-30T17:38:06.742Z,259.00
2019-01-30T17:40:35.890Z,249.43
2019-01-30T17:43:05.689Z,243.50
2019-01-30T17:45:34.833Z,265.20
2019-01-30T17:48:05.641Z,271.13
2019-01-30T17:50:34.834Z,265.07
2019-01-30T17:53:03.990Z,244.13
2019-01-30T17:55:33.121Z,240.23
2019-01-30T17:58:02.367Z,214.20
2019-01-30T18:00:52.746Z,235.40
2019-01-30T18:03:21.878Z,210.37
2019-01-30T18:05:51.004Z,227.57
2019-01-30T18:08:20.202Z,208.13
2019-01-30T18:10:49.374Z,206.27
2019-01-30T18:13:18.511Z,247.27
2019-01-30T18:15:47.662Z,244.63
2019-01-30T18:18:17.106Z,221.43
2019-01-30T18:20:46.279Z,227.23
2019-01-30T18:23:15.476Z,259.73
2019-01-30T18:25:44.662Z,292.23
2019-01-30T18:28:13.793Z,321.87
2019-01-30T18:30:42.925Z,329.80
2019-01-30T18:33:12.168Z,343.50
2019-01-30T18:35:41.369Z,344.13
2019-01-30T18:38:10.722Z,346.93
2019-01-30T18:40:39.906Z,322.53
2019-01-30T18:43:09.119Z,301.87
2019-01-30T18:45:38.258Z,287.23
2019-01-30T18:48:07.425Z,288.73
2019-01-30T18:50:36.576Z,294.20
2019-01-30T18:53:06.062Z,269.90
2019-01-30T18:55:35.234Z,259.27
2019-01-30T18:58:05.581Z,249.10
2019-01-30T19:00:40.585Z,230.60
2019-01-30T19:03:15.154Z,240.17
2019-01-30T19:05:44.312Z,225.73
2019-01-30T19:08:13.451Z,207.80
2019-01-30T19:10:42.641Z,205.40
2019-01-30T19:13:11.850Z,209.80
2019-01-30T19:15:41.066Z,223.43
2019-01-30T19:18:12.756Z,215.83
2019-01-30T19:20:43.365Z,219.23
2019-01-30T19:23:12.518Z,228.40
2019-01-30T19:25:41.710Z,217.63
2019-01-30T19:28:10.853Z,237.20
2019-01-30T19:30:40.226Z,230.47
2019-01-30T19:33:13.712Z,208.43
2019-01-30T19:35:43.633Z,228.23
2019-01-30T19:38:12.846Z,247.87
2019-01-30T19:40:42.081Z,270.17
2019-01-30T19:43:11.254Z,241.70
2019-01-30T19:45:40.674Z,255.80
2019-01-30T19:48:09.831Z,242.00
2019-01-30T19:50:39.059Z,276.97
2019-01-30T19:53:09.186Z,292.90
2019-01-30T19:55:38.405Z,317.67
2019-01-30T19:58:07.745Z,298.63
2019-01-30T20:00:42.478Z,265.87
2019-01-30T20:03:14.478Z,323.83
2019-01-30T20:05:43.941Z,309.37
2019-01-30T20:08:13.463Z,302.27
2019-01-30T20:10:42.655Z,328.17
2019-01-30T20:13:11.806Z,310.23
2019-01-30T20:15:41.029Z,296.10
2019-01-30T20:18:10.486Z,336.53
2019-01-30T20:20:39.623Z,332.17
2019-01-30T20:23:12.338Z,336.37
2019-01-30T20:25:43.809Z,335.73
2019-01-30T20:28:12.804Z,305.17
2019-01-30T20:30:42.122Z,315.17
2019-01-30T20:33:11.386Z,293.67
2019-01-30T20:35:40.762Z,287.27
2019-01-30T20:38:10.123Z,261.20
2019-01-30T20:40:39.398Z,286.30
2019-01-30T20:43:08.544Z,267.00
2019-01-30T20:45:39.120Z,282.97
2019-01-30T20:48:09.151Z,281.93
2019-01-30T20:50:38.308Z,276.27
2019-01-30T20:53:07.643Z,305.70
2019-01-30T20:55:36.817Z,309.07
2019-01-30T20:58:06.470Z,321.37
2019-01-30T21:00:37.558Z,315.60
2019-01-30T21:03:07.418Z,268.63
2019-01-30T21:05:36.573Z,294.30
2019-01-30T21:08:06.569Z,273.33
2019-01-30T21:10:38.126Z,260.93
2019-01-30T21:13:07.906Z,247.20
2019-01-30T21:15:37.084Z,222.20
2019-01-30T21:18:06.359Z,214.57
2019-01-30T21:20:35.519Z,232.70
2019-01-30T21:23:05.093Z,228.07
2019-01-30T21:25:34.228Z,220.10
2019-01-30T21:28:03.445Z,238.03
2019-01-30T21:30:34.567Z,209.07
2019-01-30T21:33:03.738Z,216.40
2019-01-30T21:35:33.018Z,215.80
2019-01-30T21:38:02.208Z,215.27
2019-01-30T21:40:31.381Z,223.70
2019-01-30T21:43:00.513Z,207.07
2019-01-30T21:45:29.722Z,217.23
2019-01-30T21:47:58.894Z,226.13
2019-01-30T21:50:28.067Z,246.70
2019-01-30T21:52:57.197Z,232.33
2019-01-30T21:55:26.361Z,240.57
2019-01-30T21:57:55.627Z,241.43
2019-01-30T22:00:26.877Z,218.83
2019-01-30T22:02:56.314Z,238.10
2019-01-30T22:05:25.879Z,234.13
2019-01-30T22:08:01.017Z,275.83
2019-01-30T22:10:27.741Z,273.80
2019-01-30T22:12:56.878Z,293.70
2019-01-30T22:15:26.392Z,300.33
2019-01-30T22:17:55.918Z,301.57
2019-01-30T22:20:26.246Z,294.57
2019-01-30T22:22:55.857Z,300.03
2019-01-30T22:25:25.361Z,280.23
2019-01-30T22:27:54.582Z,305.43
2019-01-30T22:30:29.221Z,356.93
2019-01-30T22:32:58.375Z,378.70
2019-01-30T22:35:27.686Z,419.60
2019-01-30T22:37:56.867Z,494.53
2019-01-30T22:40:26.174Z,499.27
2019-01-30T22:42:55.311Z,481.47
2019-01-30T22:45:24.557Z,500.97
2019-01-30T22:47:53.698Z,491.73
2019-01-30T22:50:22.949Z,491.27
2019-01-30T22:52:52.189Z,460.80
2019-01-30T22:55:22.543Z,438.53
2019-01-30T22:57:52.074Z,435.27
2019-01-30T23:01:10.644Z,460.87
2019-01-30T23:03:54.041Z,437.80
2019-01-30T23:07:15.625Z,439.23
2019-01-30T23:10:23.367Z,447.60
2019-01-30T23:13:16.642Z,411.27
2019-01-30T23:16:07.774Z,385.73
2019-01-30T23:18:53.441Z,436.17
2019-01-30T23:21:27.265Z,389.00
2019-01-30T23:25:05.006Z,398.90
2019-01-30T23:27:40.293Z,401.80
2019-01-30T23:30:44.802Z,389.47
2019-01-30T23:33:46.646Z,348.97
2019-01-30T23:36:41.854Z,366.30
2019-01-30T23:39:55.043Z,362.00
2019-01-30T23:42:51.118Z,391.27
2019-01-30T23:45:57.750Z,379.27
2019-01-30T23:49:06.352Z,374.73
2019-01-30T23:51:49.114Z,402.17
2019-01-30T23:54:56.238Z,397.83
2019-01-30T23:57:42.605Z,394.23
